Time;durP1;ratioP1;P1;durP2;ratioP2;P2;SDS_P1;SDS_P2;PMS_P1;PMS_P2;Temp;Humidity;BMP_temperature;BMP_pressure;BME280_temperature;BME280_humidity;BME280_pressure;Samples;Min_cycle;Max_cycle;Signal;HPM_P1;HPM_P2
2022/12/09 00:01:28;;;;;;;30.00;13.18;;;;;;;;;;4915129;29;20498;-67
2022/12/09 00:03:54;;;;;;;28.58;13.60;;;;;;;;;;4899962;29;20048;-68
2022/12/09 00:06:21;;;;;;;34.30;14.43;;;;;;;;;;4898331;29;20062;-67
2022/12/09 00:08:47;;;;;;;33.22;14.00;;;;;;;;;;4897934;29;20100;-67
2022/12/09 00:11:13;;;;;;;30.73;13.50;;;;;;;;;;4898794;29;20502;-67
2022/12/09 00:13:38;;;;;;;32.58;12.95;;;;;;;;;;4913322;29;20204;-67
2022/12/09 00:16:11;;;;;;;27.55;13.93;;;;;;;;;;4913238;29;20036;-68
2022/12/09 00:18:37;;;;;;;27.77;14.48;;;;;;;;;;4896618;29;20043;-68
2022/12/09 00:21:21;;;;;;;29.15;13.18;;;;;;;;;;4913023;29;20037;-68
2022/12/09 00:23:48;;;;;;;33.28;13.82;;;;;;;;;;4913220;29;20041;-68
2022/12/09 00:26:14;;;;;;;31.35;13.55;;;;;;;;;;4898360;29;20135;-68
2022/12/09 00:28:40;;;;;;;26.23;12.15;;;;;;;;;;4898380;29;20111;-68
2022/12/09 00:31:06;;;;;;;28.95;13.18;;;;;;;;;;4897071;29;20083;-68
2022/12/09 00:33:32;;;;;;;30.98;12.55;;;;;;;;;;4897274;29;20036;-68
2022/12/09 00:36:08;;;;;;;29.13;12.70;;;;;;;;;;4898474;29;20418;-69
2022/12/09 00:38:34;;;;;;;26.98;12.00;;;;;;;;;;4912828;29;20032;-67
2022/12/09 00:41:00;;;;;;;28.52;14.07;;;;;;;;;;4896845;29;20033;-69
2022/12/09 00:43:26;;;;;;;33.65;13.48;;;;;;;;;;4897969;29;20037;-68
2022/12/09 00:45:51;;;;;;;27.58;13.63;;;;;;;;;;4912640;29;20067;-69
2022/12/09 00:48:17;;;;;;;33.05;14.95;;;;;;;;;;4898176;29;20528;-68
2022/12/09 00:50:44;;;;;;;29.33;13.25;;;;;;;;;;4912727;29;20081;-67
2022/12/09 00:53:09;;;;;;;31.15;14.18;;;;;;;;;;4897845;29;20043;-68
2022/12/09 00:55:35;;;;;;;29.00;13.45;;;;;;;;;;4912513;29;20127;-68
2022/12/09 00:58:00;;;;;;;30.67;13.25;;;;;;;;;;4896462;29;20047;-68
2022/12/09 01:00:26;;;;;;;28.02;13.27;;;;;;;;;;4898183;29;20088;-68
2022/12/09 01:02:51;;;;;;;33.10;14.85;;;;;;;;;;4912023;29;20064;-67
2022/12/09 01:05:17;;;;;;;29.45;13.32;;;;;;;;;;4912212;29;20044;-67
2022/12/09 01:07:42;;;;;;;35.05;14.13;;;;;;;;;;4912091;29;20056;-68
2022/12/09 01:10:08;;;;;;;28.88;12.77;;;;;;;;;;4912245;29;20446;-67
2022/12/09 01:12:34;;;;;;;32.42;13.77;;;;;;;;;;4896156;29;21201;-68
2022/12/09 01:14:59;;;;;;;28.15;13.55;;;;;;;;;;4897816;29;20037;-68
2022/12/09 01:17:25;;;;;;;29.90;13.82;;;;;;;;;;4896325;29;20040;-70
2022/12/09 01:19:50;;;;;;;32.50;12.95;;;;;;;;;;4896399;29;20049;-68
2022/12/09 01:22:16;;;;;;;28.52;13.45;;;;;;;;;;4897307;29;20666;-68
2022/12/09 01:24:41;;;;;;;29.13;12.52;;;;;;;;;;4897549;29;20091;-67
2022/12/09 01:27:07;;;;;;;27.85;13.70;;;;;;;;;;4895973;29;20545;-68
2022/12/09 01:29:33;;;;;;;32.63;13.93;;;;;;;;;;4895867;29;20085;-69
2022/12/09 01:31:58;;;;;;;25.33;12.40;;;;;;;;;;4895720;29;20079;-68
2022/12/09 01:34:24;;;;;;;30.50;13.27;;;;;;;;;;4895876;29;20036;-67
2022/12/09 01:36:51;;;;;;;28.95;13.73;;;;;;;;;;4911421;29;20422;-68
2022/12/09 01:39:17;;;;;;;29.27;13.77;;;;;;;;;;4896046;29;20040;-68
2022/12/09 01:41:42;;;;;;;25.95;12.60;;;;;;;;;;4895739;29;20065;-68
2022/12/09 01:44:10;;;;;;;26.98;12.23;;;;;;;;;;4911517;29;20036;-68
2022/12/09 01:46:35;;;;;;;28.38;13.32;;;;;;;;;;4895714;29;20533;-67
2022/12/09 01:49:01;;;;;;;28.13;13.70;;;;;;;;;;4895719;29;20044;-68
2022/12/09 01:51:27;;;;;;;28.40;13.30;;;;;;;;;;4911432;29;20036;-67
2022/12/09 01:53:52;;;;;;;27.15;12.18;;;;;;;;;;4911416;29;20545;-68
2022/12/09 01:56:22;;;;;;;32.72;13.02;;;;;;;;;;4895545;29;20392;-68
2022/12/09 01:58:48;;;;;;;27.35;12.93;;;;;;;;;;4911428;29;20041;-68
2022/12/09 02:01:15;;;;;;;27.50;13.27;;;;;;;;;;4911232;29;20096;-68
2022/12/09 02:03:41;;;;;;;27.35;12.35;;;;;;;;;;4895447;29;20570;-68
2022/12/09 02:06:06;;;;;;;27.48;12.85;;;;;;;;;;4897129;29;20119;-68
2022/12/09 02:08:32;;;;;;;27.73;12.60;;;;;;;;;;4896581;29;20427;-67
2022/12/09 02:10:58;;;;;;;28.55;13.88;;;;;;;;;;4895301;29;20043;-68
2022/12/09 02:13:53;;;;;;;26.80;13.05;;;;;;;;;;4908767;29;20516;-68
2022/12/09 02:16:22;;;;;;;29.02;13.02;;;;;;;;;;4895334;29;20083;-66
2022/12/09 02:18:57;;;;;;;24.42;12.55;;;;;;;;;;4911007;29;20044;-67
2022/12/09 02:21:37;;;;;;;29.23;12.65;;;;;;;;;;4910991;29;20048;-67
2022/12/09 02:24:13;;;;;;;24.70;12.80;;;;;;;;;;4895123;29;20048;-67
2022/12/09 02:26:47;;;;;;;27.40;12.77;;;;;;;;;;4895239;29;20127;-68
2022/12/09 02:29:28;;;;;;;27.58;12.32;;;;;;;;;;4911031;29;20048;-68
2022/12/09 02:32:18;;;;;;;29.13;12.80;;;;;;;;;;4910791;29;20040;-68
2022/12/09 02:34:54;;;;;;;30.38;12.63;;;;;;;;;;4862184;29;20048;-68
2022/12/09 02:37:23;;;;;;;24.40;12.60;;;;;;;;;;4910890;29;20051;-69
2022/12/09 02:39:55;;;;;;;26.80;11.57;;;;;;;;;;4895098;29;20044;-67
2022/12/09 02:42:29;;;;;;;28.80;12.73;;;;;;;;;;4913907;29;20100;-67
2022/12/09 02:44:56;;;;;;;31.08;13.55;;;;;;;;;;4914920;29;20045;-66
2022/12/09 02:47:24;;;;;;;26.95;13.13;;;;;;;;;;4914682;29;20108;-68
2022/12/09 02:49:52;;;;;;;27.95;13.00;;;;;;;;;;4898940;29;20079;-68
2022/12/09 02:52:20;;;;;;;25.65;13.13;;;;;;;;;;4899086;29;20128;-68
2022/12/09 02:54:47;;;;;;;21.90;11.85;;;;;;;;;;4898914;29;20040;-68
2022/12/09 02:57:14;;;;;;;29.63;12.50;;;;;;;;;;4914505;29;20040;-68
2022/12/09 02:59:41;;;;;;;28.40;12.55;;;;;;;;;;4914580;29;20418;-68
2022/12/09 03:02:25;;;;;;;23.90;12.80;;;;;;;;;;4898826;29;20051;-68
2022/12/09 03:05:10;;;;;;;28.52;12.55;;;;;;;;;;4914465;29;20120;-67
2022/12/09 03:07:41;;;;;;;25.05;11.38;;;;;;;;;;4914318;29;20048;-68
2022/12/09 03:10:14;;;;;;;23.05;11.50;;;;;;;;;;4914303;29;20044;-67
2022/12/09 03:12:41;;;;;;;27.80;13.10;;;;;;;;;;4899719;29;20107;-68
2022/12/09 03:15:09;;;;;;;21.98;11.73;;;;;;;;;;4898633;29;20573;-68
2022/12/09 03:17:36;;;;;;;24.17;12.20;;;;;;;;;;4914357;29;20114;-67
2022/12/09 03:20:06;;;;;;;20.42;11.07;;;;;;;;;;4898543;29;20135;-68
2022/12/09 03:22:33;;;;;;;26.67;12.18;;;;;;;;;;4899527;29;20052;-67
2022/12/09 03:24:59;;;;;;;20.13;10.68;;;;;;;;;;4899806;29;20057;-67
2022/12/09 03:27:27;;;;;;;23.77;10.98;;;;;;;;;;4913937;29;20076;-67
2022/12/09 03:29:54;;;;;;;20.05;10.55;;;;;;;;;;4898247;29;20119;-68
2022/12/09 03:32:22;;;;;;;22.55;10.20;;;;;;;;;;4914031;29;20451;-68
2022/12/09 03:34:49;;;;;;;21.52;10.52;;;;;;;;;;4913870;29;20044;-69
2022/12/09 03:37:16;;;;;;;20.50;11.13;;;;;;;;;;4899249;29;20048;-68
2022/12/09 03:39:43;;;;;;;22.10;10.18;;;;;;;;;;4898004;29;20041;-67
2022/12/09 03:42:13;;;;;;;21.02;10.38;;;;;;;;;;4898937;29;20049;-67
2022/12/09 03:44:39;;;;;;;;;;;;;;;;;;4899983;29;20062;-67
2022/12/09 03:47:05;;;;;;;20.67;10.02;;;;;;;;;;4898899;29;20478;-67
2022/12/09 03:49:32;;;;;;;19.65;10.50;;;;;;;;;;4897761;29;20048;-68
2022/12/09 03:52:15;;;;;;;16.42;10.38;;;;;;;;;;4899197;29;20380;-67
2022/12/09 03:54:43;;;;;;;23.30;10.93;;;;;;;;;;4897586;29;20589;-67
2022/12/09 03:57:11;;;;;;;21.48;10.43;;;;;;;;;;4898841;29;20040;-68
2022/12/09 03:59:38;;;;;;;20.67;10.55;;;;;;;;;;4899180;29;20411;-69
2022/12/09 04:02:05;;;;;;;20.60;10.30;;;;;;;;;;4897360;29;20044;-67
2022/12/09 04:04:31;;;;;;;22.63;11.98;;;;;;;;;;4897747;29;20107;-68
2022/12/09 04:06:58;;;;;;;22.30;11.73;;;;;;;;;;4913135;29;20133;-68
2022/12/09 04:09:23;;;;;;;21.35;10.95;;;;;;;;;;4898982;29;20036;-68
2022/12/09 04:11:49;;;;;;;22.45;10.82;;;;;;;;;;4913086;29;20546;-67
2022/12/09 04:14:14;;;;;;;23.80;11.15;;;;;;;;;;4898847;29;20077;-68
2022/12/09 04:16:40;;;;;;;24.77;12.40;;;;;;;;;;4913399;29;20092;-68
2022/12/09 04:19:05;;;;;;;22.70;11.48;;;;;;;;;;4897258;29;20490;-68
2022/12/09 04:21:31;;;;;;;22.10;11.75;;;;;;;;;;4897210;29;20048;-67
2022/12/09 04:23:56;;;;;;;24.02;12.10;;;;;;;;;;4898323;29;20108;-66
2022/12/09 04:26:22;;;;;;;22.30;12.30;;;;;;;;;;4896975;29;20040;-67
2022/12/09 04:28:49;;;;;;;23.45;12.75;;;;;;;;;;4897010;29;20037;-67
2022/12/09 04:31:16;;;;;;;29.63;13.32;;;;;;;;;;4898283;29;20032;-68
2022/12/09 04:33:42;;;;;;;24.25;13.30;;;;;;;;;;4897001;29;20494;-67
2022/12/09 04:36:10;;;;;;;24.58;13.15;;;;;;;;;;4898215;29;20061;-68
2022/12/09 04:38:35;;;;;;;24.27;12.68;;;;;;;;;;4912941;29;20100;-67
2022/12/09 04:41:01;;;;;;;28.70;12.98;;;;;;;;;;4897817;29;20495;-68
2022/12/09 04:43:27;;;;;;;27.48;13.07;;;;;;;;;;4896721;29;20041;-67
2022/12/09 04:45:53;;;;;;;28.10;14.20;;;;;;;;;;4896895;29;20092;-67
2022/12/09 04:48:18;;;;;;;27.08;13.63;;;;;;;;;;4898031;29;20379;-69
2022/12/09 04:50:44;;;;;;;31.80;13.60;;;;;;;;;;4898224;29;20114;-68
2022/12/09 04:53:09;;;;;;;24.90;12.68;;;;;;;;;;4897302;29;20405;-68
2022/12/09 04:55:35;;;;;;;26.42;12.60;;;;;;;;;;4896789;29;20501;-68
2022/12/09 04:58:01;;;;;;;27.15;12.73;;;;;;;;;;4912453;29;20388;-67
2022/12/09 05:00:26;;;;;;;32.33;14.90;;;;;;;;;;4898213;29;20403;-68
2022/12/09 05:02:52;;;;;;;32.85;12.88;;;;;;;;;;4896550;29;20055;-67
2022/12/09 05:05:18;;;;;;;28.20;13.75;;;;;;;;;;4896061;29;20115;-68
2022/12/09 05:07:43;;;;;;;27.30;12.85;;;;;;;;;;4897535;29;20036;-68
2022/12/09 05:10:09;;;;;;;26.13;13.07;;;;;;;;;;4911974;29;20101;-67
2022/12/09 05:12:34;;;;;;;25.77;12.40;;;;;;;;;;4897284;29;20116;-69
2022/12/09 05:15:00;;;;;;;26.83;12.43;;;;;;;;;;4896355;29;20048;-67
2022/12/09 05:17:26;;;;;;;29.35;12.05;;;;;;;;;;4897362;29;20043;-69
2022/12/09 05:19:52;;;;;;;29.38;12.23;;;;;;;;;;4897621;29;20048;-69
2022/12/09 05:22:18;;;;;;;32.08;12.65;;;;;;;;;;4897381;29;20044;-69
2022/12/09 05:24:45;;;;;;;26.92;12.48;;;;;;;;;;4896168;29;20076;-68
2022/12/09 05:27:11;;;;;;;29.80;13.05;;;;;;;;;;4896030;29;20070;-69
2022/12/09 05:29:37;;;;;;;29.05;12.77;;;;;;;;;;4911831;29;20503;-68
2022/12/09 05:32:04;;;;;;;26.60;12.25;;;;;;;;;;4897130;29;20132;-69
2022/12/09 05:34:29;;;;;;;29.33;13.45;;;;;;;;;;4897366;29;20571;-68
2022/12/09 05:36:55;;;;;;;32.15;13.20;;;;;;;;;;4911444;29;20036;-69
2022/12/09 05:39:21;;;;;;;30.50;14.02;;;;;;;;;;4911786;29;20045;-69
2022/12/09 05:41:47;;;;;;;29.58;13.93;;;;;;;;;;4895789;29;20390;-68
2022/12/09 05:44:13;;;;;;;30.38;13.75;;;;;;;;;;4897477;29;20040;-69
2022/12/09 05:46:38;;;;;;;34.42;14.35;;;;;;;;;;4898853;29;20055;-70
2022/12/09 05:49:05;;;;;;;35.55;14.95;;;;;;;;;;4898660;29;20036;-68
2022/12/09 05:51:31;;;;;;;37.35;16.45;;;;;;;;;;4897029;29;20466;-69
2022/12/09 05:54:00;;;;;;;45.53;15.70;;;;;;;;;;4897422;29;20048;-67
2022/12/09 05:56:28;;;;;;;42.90;16.17;;;;;;;;;;4897077;29;20044;-67
2022/12/09 05:58:54;;;;;;;43.25;18.13;;;;;;;;;;4893819;29;20525;-67
2022/12/09 06:01:20;;;;;;;40.17;16.48;;;;;;;;;;4907166;29;20049;-69
2022/12/09 06:03:47;;;;;;;45.55;16.17;;;;;;;;;;4891571;29;20050;-70
2022/12/09 06:06:14;;;;;;;50.20;18.35;;;;;;;;;;4907700;29;20391;-65
2022/12/09 06:08:40;;;;;;;42.63;17.13;;;;;;;;;;4893110;29;20503;-72
2022/12/09 06:11:13;;;;;;;46.70;18.63;;;;;;;;;;4890111;29;20037;-71
2022/12/09 06:13:39;;;;;;;43.47;17.67;;;;;;;;;;4891704;29;20067;-67
2022/12/09 06:16:05;;;;;;;49.00;17.83;;;;;;;;;;4892949;29;20048;-68
2022/12/09 06:18:31;;;;;;;49.40;18.17;;;;;;;;;;4893387;29;20571;-67
2022/12/09 06:20:56;;;;;;;45.17;17.08;;;;;;;;;;4908447;29;20044;-68
2022/12/09 06:23:22;;;;;;;41.88;18.05;;;;;;;;;;4893340;29;20045;-67
2022/12/09 06:25:47;;;;;;;47.78;18.20;;;;;;;;;;4908837;29;20085;-67
2022/12/09 06:28:13;;;;;;;54.75;19.38;;;;;;;;;;4892857;29;20555;-66
2022/12/09 06:30:39;;;;;;;42.08;17.08;;;;;;;;;;4894235;29;20036;-65
2022/12/09 06:33:04;;;;;;;40.10;17.20;;;;;;;;;;4891120;29;20071;-67
2022/12/09 06:35:30;;;;;;;48.28;18.33;;;;;;;;;;4892151;29;20076;-67
2022/12/09 06:37:55;;;;;;;49.72;19.25;;;;;;;;;;4889862;29;20032;-66
2022/12/09 06:40:21;;;;;;;42.05;17.52;;;;;;;;;;4891129;29;20079;-67
2022/12/09 06:42:49;;;;;;;47.60;17.85;;;;;;;;;;4891816;29;20478;-67
2022/12/09 06:45:18;;;;;;;45.30;18.38;;;;;;;;;;4891237;29;20041;-66
2022/12/09 06:47:44;;;;;;;51.28;19.13;;;;;;;;;;4893073;29;20112;-68
2022/12/09 06:50:09;;;;;;;51.33;19.25;;;;;;;;;;4893689;29;20487;-66
2022/12/09 06:52:36;;;;;;;51.83;19.63;;;;;;;;;;4892777;29;20505;-66
2022/12/09 06:55:02;;;;;;;43.92;18.70;;;;;;;;;;4908263;29;20044;-67
2022/12/09 06:57:29;;;;;;;51.33;20.20;;;;;;;;;;4906746;29;20044;-68
2022/12/09 06:59:55;;;;;;;40.65;17.92;;;;;;;;;;4891439;29;20052;-67
2022/12/09 07:02:20;;;;;;;45.13;19.50;;;;;;;;;;4889459;29;20059;-68
2022/12/09 07:04:51;;;;;;;47.97;19.33;;;;;;;;;;4890179;29;20514;-73
2022/12/09 07:07:16;;;;;;;46.75;19.10;;;;;;;;;;4889303;29;20135;-68
2022/12/09 07:09:43;;;;;;;50.33;19.10;;;;;;;;;;4892995;29;20123;-68
2022/12/09 07:12:09;;;;;;;40.88;17.20;;;;;;;;;;4893003;29;20486;-68
2022/12/09 07:14:35;;;;;;;46.30;18.95;;;;;;;;;;4906155;29;20053;-67
2022/12/09 07:17:01;;;;;;;51.47;18.33;;;;;;;;;;4890659;29;20139;-67
2022/12/09 07:19:28;;;;;;;42.28;18.15;;;;;;;;;;4892712;29;20047;-67
2022/12/09 07:21:53;;;;;;;48.38;17.90;;;;;;;;;;4891560;29;20055;-66
2022/12/09 07:24:19;;;;;;;47.45;19.00;;;;;;;;;;4892463;29;20032;-66
2022/12/09 07:26:45;;;;;;;42.33;18.23;;;;;;;;;;4891787;29;20040;-65
2022/12/09 07:29:10;;;;;;;38.10;16.13;;;;;;;;;;4893415;29;20041;-67
2022/12/09 07:31:36;;;;;;;40.00;17.10;;;;;;;;;;4894809;29;20470;-67
2022/12/09 07:34:02;;;;;;;46.92;19.85;;;;;;;;;;4911229;29;20041;-66
2022/12/09 07:36:29;;;;;;;62.35;26.10;;;;;;;;;;4896272;29;20032;-65
2022/12/09 07:38:58;;;;;;;46.47;20.50;;;;;;;;;;4911227;29;20509;-65
2022/12/09 07:41:25;;;;;;;45.55;22.02;;;;;;;;;;4911548;29;20036;-67
2022/12/09 07:43:50;;;;;;;45.70;18.80;;;;;;;;;;4896536;29;20538;-66
2022/12/09 07:46:18;;;;;;;46.60;17.60;;;;;;;;;;4912162;29;20045;-66
2022/12/09 07:48:43;;;;;;;43.20;17.23;;;;;;;;;;4896388;29;20053;-66
2022/12/09 07:51:09;;;;;;;42.70;17.17;;;;;;;;;;4912249;29;20036;-66
2022/12/09 07:53:35;;;;;;;42.47;18.38;;;;;;;;;;4894531;29;20577;-65
2022/12/09 07:56:02;;;;;;;45.92;20.10;;;;;;;;;;4911013;29;20047;-67
2022/12/09 07:58:28;;;;;;;47.20;18.75;;;;;;;;;;4894284;29;20074;-66
2022/12/09 08:00:53;;;;;;;41.00;17.75;;;;;;;;;;4880029;29;20088;-66
2022/12/09 08:03:19;;;;;;;43.88;18.90;;;;;;;;;;4893826;29;20100;-67
2022/12/09 08:05:45;;;;;;;57.45;18.80;;;;;;;;;;4893613;29;20071;-67
2022/12/09 08:08:11;;;;;;;42.40;19.20;;;;;;;;;;4895027;29;20049;-66
2022/12/09 08:10:36;;;;;;;44.40;18.83;;;;;;;;;;4894617;29;20501;-66
2022/12/09 08:13:02;;;;;;;48.78;19.85;;;;;;;;;;4909169;29;20445;-68
2022/12/09 08:15:28;;;;;;;45.20;20.05;;;;;;;;;;4892362;29;20048;-69
2022/12/09 08:17:53;;;;;;;48.55;21.30;;;;;;;;;;4893121;29;20029;-69
2022/12/09 08:20:19;;;;;;;45.83;19.08;;;;;;;;;;4909348;29;20056;-67
2022/12/09 08:22:44;;;;;;;46.95;20.55;;;;;;;;;;4897021;29;20517;-67
2022/12/09 08:25:10;;;;;;;46.22;19.67;;;;;;;;;;4897448;29;20044;-68
2022/12/09 08:27:35;;;;;;;43.97;20.13;;;;;;;;;;4897331;29;20128;-64
2022/12/09 08:30:03;;;;;;;55.97;22.85;;;;;;;;;;4907923;29;20518;-68
2022/12/09 08:32:29;;;;;;;49.30;21.17;;;;;;;;;;4895355;29;20037;-68
2022/12/09 08:34:55;;;;;;;44.55;21.42;;;;;;;;;;4880372;29;20066;-67
2022/12/09 08:37:21;;;;;;;50.60;22.65;;;;;;;;;;4893257;29;20081;-68
2022/12/09 08:39:46;;;;;;;49.65;22.90;;;;;;;;;;4895760;29;20470;-67
2022/12/09 08:42:12;;;;;;;49.80;21.52;;;;;;;;;;4909209;29;20545;-66
2022/12/09 08:44:38;;;;;;;46.67;20.90;;;;;;;;;;4908987;29;20044;-66
2022/12/09 08:47:04;;;;;;;43.30;20.77;;;;;;;;;;4897183;29;20563;-65
2022/12/09 08:49:29;;;;;;;51.55;21.52;;;;;;;;;;4910657;29;20083;-69
2022/12/09 08:51:55;;;;;;;47.13;21.23;;;;;;;;;;4894055;29;20037;-68
2022/12/09 08:54:20;;;;;;;42.78;20.00;;;;;;;;;;4909309;29;20735;-66
2022/12/09 08:56:47;;;;;;;47.15;20.25;;;;;;;;;;4908926;29;20040;-67
2022/12/09 08:59:13;;;;;;;43.83;19.10;;;;;;;;;;4894911;29;20044;-66
2022/12/09 09:01:38;;;;;;;41.85;19.90;;;;;;;;;;4894318;29;20055;-69
2022/12/09 09:04:05;;;;;;;45.90;21.05;;;;;;;;;;4894594;29;20047;-69
2022/12/09 09:06:31;;;;;;;41.65;20.10;;;;;;;;;;4893079;29;20047;-68
2022/12/09 09:08:57;;;;;;;46.00;20.38;;;;;;;;;;4894142;29;20041;-68
2022/12/09 09:11:23;;;;;;;45.58;20.73;;;;;;;;;;4894308;29;20116;-69
2022/12/09 09:13:51;;;;;;;54.88;21.58;;;;;;;;;;4892725;29;20417;-68
2022/12/09 09:16:26;;;;;;;39.67;20.63;;;;;;;;;;4894341;29;20170;-68
2022/12/09 09:19:01;;;;;;;34.78;18.38;;;;;;;;;;4878583;29;20041;-71
2022/12/09 09:21:28;;;;;;;41.85;19.23;;;;;;;;;;4894942;29;20040;-69
2022/12/09 09:23:53;;;;;;;46.70;22.15;;;;;;;;;;4879676;29;20494;-70
2022/12/09 09:26:22;;;;;;;42.13;20.25;;;;;;;;;;4895520;29;20045;-70
2022/12/09 09:28:48;;;;;;;38.17;18.92;;;;;;;;;;4893399;29;20051;-71
2022/12/09 09:31:18;;;;;;;39.88;18.63;;;;;;;;;;4895233;29;20033;-69
2022/12/09 09:33:44;;;;;;;;;;;;;;;;;;4896368;29;20702;-68
2022/12/09 09:36:19;;;;;;;39.85;18.73;;;;;;;;;;4893354;29;20007;-69
2022/12/09 09:38:45;;;;;;;44.92;20.20;;;;;;;;;;4892703;29;20499;-69
2022/12/09 09:41:30;;;;;;;39.92;18.83;;;;;;;;;;4891270;29;20815;-69
2022/12/09 09:43:56;;;;;;;51.78;19.50;;;;;;;;;;4891031;29;20079;-68
2022/12/09 09:46:41;;;;;;;47.47;20.58;;;;;;;;;;4891351;29;20667;-68
2022/12/09 09:49:13;;;;;;;37.35;18.15;;;;;;;;;;4874878;29;20044;-69
2022/12/09 09:51:39;;;;;;;38.85;18.23;;;;;;;;;;4891845;29;20059;-66
2022/12/09 09:54:04;;;;;;;36.05;17.38;;;;;;;;;;4890870;29;20518;-69
2022/12/09 09:56:44;;;;;;;39.92;19.80;;;;;;;;;;4893317;29;20040;-70
2022/12/09 09:59:16;;;;;;;39.92;20.77;;;;;;;;;;4908028;29;20033;-71
2022/12/09 10:01:45;;;;;;;39.47;18.15;;;;;;;;;;4890500;29;20421;-71
2022/12/09 10:04:17;;;;;;;39.85;18.38;;;;;;;;;;4894333;29;20040;-70
2022/12/09 10:06:46;;;;;;;38.05;18.10;;;;;;;;;;4892470;29;20032;-69
2022/12/09 10:09:18;;;;;;;43.20;19.65;;;;;;;;;;4892936;29;20041;-66
2022/12/09 10:11:46;;;;;;;43.90;19.88;;;;;;;;;;4892443;29;20032;-69
2022/12/09 10:14:26;;;;;;;45.67;21.50;;;;;;;;;;4909548;29;20064;-68
2022/12/09 10:16:54;;;;;;;46.67;22.58;;;;;;;;;;4893996;29;20036;-70
2022/12/09 10:19:22;;;;;;;56.05;23.85;;;;;;;;;;4893986;29;20394;-73
2022/12/09 10:21:49;;;;;;;51.47;24.25;;;;;;;;;;4890402;29;20430;-74
2022/12/09 10:24:18;;;;;;;45.15;21.98;;;;;;;;;;4908834;29;20055;-71
2022/12/09 10:26:50;;;;;;;46.85;20.13;;;;;;;;;;4894888;29;20474;-74
2022/12/09 10:29:18;;;;;;;36.80;18.27;;;;;;;;;;4894495;29;20044;-70
2022/12/09 10:31:44;;;;;;;39.50;18.20;;;;;;;;;;4892681;29;20047;-73
2022/12/09 10:34:12;;;;;;;41.85;18.30;;;;;;;;;;4892416;29;20052;-71
2022/12/09 10:36:41;;;;;;;36.17;17.80;;;;;;;;;;4893906;29;20041;-72
2022/12/09 10:39:10;;;;;;;31.35;15.70;;;;;;;;;;4895385;29;20048;-73
2022/12/09 10:44:27;;;;;;;34.63;16.98;;;;;;;;;;4891187;29;20041;-72
2022/12/09 10:46:59;;;;;;;31.20;16.95;;;;;;;;;;4876478;29;20498;-73
2022/12/09 10:49:25;;;;;;;37.75;17.35;;;;;;;;;;4891930;29;20044;-74
2022/12/09 10:51:51;;;;;;;41.53;18.85;;;;;;;;;;4891579;29;20634;-75
2022/12/09 10:54:39;;;;;;;49.38;22.90;;;;;;;;;;4906970;29;20131;-74
2022/12/09 10:57:10;;;;;;;49.72;23.13;;;;;;;;;;4906249;29;20096;-73
2022/12/09 10:59:38;;;;;;;51.53;23.35;;;;;;;;;;4892843;29;20047;-72
2022/12/09 11:02:06;;;;;;;53.28;24.75;;;;;;;;;;4893585;29;20553;-74
2022/12/09 11:04:34;;;;;;;58.70;26.92;;;;;;;;;;4894281;29;20044;-73
2022/12/09 11:07:02;;;;;;;54.78;25.60;;;;;;;;;;4898018;29;20067;-75
2022/12/09 11:09:33;;;;;;;48.08;22.25;;;;;;;;;;4910730;29;20458;-72
2022/12/09 11:11:59;;;;;;;49.80;22.15;;;;;;;;;;4896334;29;20064;-75
2022/12/09 11:14:24;;;;;;;44.53;22.10;;;;;;;;;;4897689;29;20072;-71
2022/12/09 11:16:56;;;;;;;47.35;22.70;;;;;;;;;;4897048;29;20049;-72
2022/12/09 11:19:35;;;;;;;51.83;23.48;;;;;;;;;;4911975;29;20447;-72
2022/12/09 11:22:20;;;;;;;59.67;24.77;;;;;;;;;;4910364;29;20569;-72
2022/12/09 11:24:46;;;;;;;54.42;23.95;;;;;;;;;;4893727;29;20052;-73
2022/12/09 11:27:32;;;;;;;52.17;24.15;;;;;;;;;;4910252;29;20048;-73
2022/12/09 11:30:14;;;;;;;49.92;24.05;;;;;;;;;;4911327;29;20048;-72
2022/12/09 11:32:58;;;;;;;49.42;22.70;;;;;;;;;;4896620;29;20522;-73
2022/12/09 11:35:32;;;;;;;47.42;22.65;;;;;;;;;;4895717;29;20593;-73
2022/12/09 11:38:01;;;;;;;48.20;22.55;;;;;;;;;;4895848;29;20070;-71
2022/12/09 11:40:27;;;;;;;49.55;22.15;;;;;;;;;;4896805;29;20495;-73
2022/12/09 11:42:53;;;;;;;45.65;22.05;;;;;;;;;;4895377;29;20194;-73
2022/12/09 11:45:29;;;;;;;47.80;22.80;;;;;;;;;;4895617;29;20037;-73
2022/12/09 11:48:02;;;;;;;47.20;21.88;;;;;;;;;;4896092;29;20410;-71
2022/12/09 11:50:31;;;;;;;45.17;22.23;;;;;;;;;;4897695;29;20048;-73
2022/12/09 11:53:09;;;;;;;46.85;23.38;;;;;;;;;;4896231;29;20086;-73
2022/12/09 11:55:57;;;;;;;49.50;21.73;;;;;;;;;;4910523;29;20219;-72
2022/12/09 11:58:32;;;;;;;48.13;20.90;;;;;;;;;;4896396;29;20095;-72
2022/12/09 12:01:30;;;;;;;38.50;19.80;;;;;;;;;;4895178;29;20045;-73
2022/12/09 12:04:00;;;;;;;40.30;20.40;;;;;;;;;;4894590;29;20426;-73
2022/12/09 12:06:38;;;;;;;40.30;20.63;;;;;;;;;;4896484;29;20335;-73
2022/12/09 12:09:20;;;;;;;45.03;20.70;;;;;;;;;;4897115;29;20054;-73
2022/12/09 12:11:56;;;;;;;44.45;21.25;;;;;;;;;;4896613;29;20228;-72
2022/12/09 12:14:24;;;;;;;41.55;20.35;;;;;;;;;;4895342;29;20076;-70
2022/12/09 12:17:00;;;;;;;39.63;18.95;;;;;;;;;;4896612;29;20135;-71
2022/12/09 12:19:30;;;;;;;45.17;20.95;;;;;;;;;;4910528;29;20609;-72
2022/12/09 12:22:08;;;;;;;44.05;21.85;;;;;;;;;;4912570;29;20395;-73
2022/12/09 12:24:53;;;;;;;44.15;20.20;;;;;;;;;;4911294;29;20045;-71
2022/12/09 12:27:48;;;;;;;46.75;21.58;;;;;;;;;;4897457;29;20049;-69
2022/12/09 12:30:15;;;;;;;46.92;21.50;;;;;;;;;;4896530;29;20040;-72
2022/12/09 12:32:40;;;;;;;38.38;18.98;;;;;;;;;;4895644;29;20143;-72
2022/12/09 12:35:09;;;;;;;55.83;22.40;;;;;;;;;;4911019;29;20161;-72
2022/12/09 12:37:37;;;;;;;45.00;21.75;;;;;;;;;;4910629;29;20055;-67
2022/12/09 12:40:32;;;;;;;42.88;21.02;;;;;;;;;;4897584;29;20485;-67
2022/12/09 12:46:18;;;;;;;47.97;20.63;;;;;;;;;;4895752;29;20052;-70
2022/12/09 12:49:03;;;;;;;42.33;18.65;;;;;;;;;;4911830;29;20387;-71
2022/12/09 12:51:53;;;;;;;43.97;20.40;;;;;;;;;;4896467;29;20033;-71
2022/12/09 12:54:18;;;;;;;45.08;19.80;;;;;;;;;;4879689;29;20051;-71
2022/12/09 12:56:52;;;;;;;39.15;19.13;;;;;;;;;;4911607;29;20049;-72
2022/12/09 12:59:27;;;;;;;42.53;20.17;;;;;;;;;;4912454;29;20119;-68
2022/12/09 13:01:53;;;;;;;42.53;19.88;;;;;;;;;;4909415;29;20060;-69
2022/12/09 13:04:25;;;;;;;47.92;20.80;;;;;;;;;;4911130;29;20053;-71
2022/12/09 13:06:56;;;;;;;46.60;20.00;;;;;;;;;;4910360;29;20102;-72
2022/12/09 13:09:47;;;;;;;36.35;18.27;;;;;;;;;;4910481;29;20045;-72
2022/12/09 13:12:52;;;;;;;42.47;20.00;;;;;;;;;;4894558;29;20060;-73
2022/12/09 13:15:13;;;;;;;42.25;18.83;;;;;;;;;;4908246;29;20060;-70
2022/12/09 13:17:39;;;;;;;39.58;18.63;;;;;;;;;;4895049;29;20548;-68
2022/12/09 13:20:05;;;;;;;39.15;17.77;;;;;;;;;;4895481;29;20044;-68
2022/12/09 13:22:49;;;;;;;40.42;18.80;;;;;;;;;;4910027;29;20510;-68
2022/12/09 13:25:18;;;;;;;36.00;18.38;;;;;;;;;;4895119;29;20037;-67
2022/12/09 13:27:46;;;;;;;43.70;17.70;;;;;;;;;;4907875;29;20045;-67
2022/12/09 13:30:14;;;;;;;41.17;18.05;;;;;;;;;;4893122;29;20041;-65
2022/12/09 13:32:42;;;;;;;40.42;17.98;;;;;;;;;;4893989;29;20582;-66
2022/12/09 13:35:12;;;;;;;36.78;17.85;;;;;;;;;;4893889;29;20044;-66
2022/12/09 13:37:37;;;;;;;38.08;17.52;;;;;;;;;;4891875;29;20410;-67
2022/12/09 13:40:23;;;;;;;37.97;16.25;;;;;;;;;;4894617;29;20040;-67
2022/12/09 13:43:09;;;;;;;33.30;16.30;;;;;;;;;;4893297;29;20407;-67
2022/12/09 13:45:36;;;;;;;34.50;15.68;;;;;;;;;;4895122;29;20060;-68
2022/12/09 13:48:10;;;;;;;38.08;17.10;;;;;;;;;;4895013;29;20036;-68
2022/12/09 13:50:43;;;;;;;34.70;16.08;;;;;;;;;;4894410;29;20049;-67
2022/12/09 13:53:18;;;;;;;36.08;16.52;;;;;;;;;;4894198;29;20044;-67
2022/12/09 13:55:52;;;;;;;36.10;16.50;;;;;;;;;;4895233;29;20519;-67
2022/12/09 13:58:24;;;;;;;36.65;16.40;;;;;;;;;;4908999;29;20184;-67
2022/12/09 14:01:02;;;;;;;36.28;17.75;;;;;;;;;;4895542;29;20514;-68
2022/12/09 14:03:30;;;;;;;30.85;16.50;;;;;;;;;;4891202;29;20067;-70
2022/12/09 14:05:57;;;;;;;35.47;16.77;;;;;;;;;;4891613;29;20037;-67
2022/12/09 14:08:25;;;;;;;33.97;15.38;;;;;;;;;;4905998;29;20032;-69
2022/12/09 14:10:51;;;;;;;33.65;16.88;;;;;;;;;;4909322;29;20039;-66
2022/12/09 14:13:20;;;;;;;36.47;17.13;;;;;;;;;;4895105;29;20113;-65
2022/12/09 14:15:46;;;;;;;31.65;16.42;;;;;;;;;;4909098;29;20049;-65
2022/12/09 14:18:26;;;;;;;26.17;14.20;;;;;;;;;;4893694;29;20063;-67
2022/12/09 14:21:10;;;;;;;32.33;16.23;;;;;;;;;;4893870;29;20044;-69
2022/12/09 14:23:37;;;;;;;33.40;16.60;;;;;;;;;;4894995;29;20060;-69
2022/12/09 14:26:04;;;;;;;34.20;16.52;;;;;;;;;;4893017;29;20040;-68
2022/12/09 14:28:30;;;;;;;34.88;15.48;;;;;;;;;;4892879;29;20032;-67
2022/12/09 14:30:58;;;;;;;28.92;15.32;;;;;;;;;;4895295;29;20051;-70
2022/12/09 14:33:29;;;;;;;30.80;15.85;;;;;;;;;;4894478;29;20520;-70
2022/12/09 14:35:58;;;;;;;31.30;15.55;;;;;;;;;;4891359;29;20061;-70